sensor_id;sensor_type;location;lat;lon;timestamp;temperature;humidity
61672;DHT22;47572;0.00000000;0.00000000;2022-12-20T00:00:04;18.40;58.80
61672;DHT22;47572;0.00000000;0.00000000;2022-12-20T00:02:30;18.40;58.90
61672;DHT22;47572;0.00000000;0.00000000;2022-12-20T00:04:55;18.40;58.80
61672;DHT22;47572;0.00000000;0.00000000;2022-12-20T00:07:21;18.40;58.90
61672;DHT22;47572;0.00000000;0.00000000;2022-12-20T00:09:48;18.40;58.80
61672;DHT22;47572;0.00000000;0.00000000;2022-12-20T00:12:14;18.40;58.90
61672;DHT22;47572;0.00000000;0.00000000;2022-12-20T00:14:39;18.30;58.80
61672;DHT22;47572;0.00000000;0.00000000;2022-12-20T00:17:06;18.30;58.80
61672;DHT22;47572;0.00000000;0.00000000;2022-12-20T00:19:32;18.30;58.80
61672;DHT22;47572;0.00000000;0.00000000;2022-12-20T00:22:00;18.30;58.90
61672;DHT22;47572;0.00000000;0.00000000;2022-12-20T00:24:26;18.30;58.90
61672;DHT22;47572;0.00000000;0.00000000;2022-12-20T00:26:51;18.30;58.90
61672;DHT22;47572;0.00000000;0.00000000;2022-12-20T00:29:21;18.30;58.90
61672;DHT22;47572;0.00000000;0.00000000;2022-12-20T00:31:50;18.30;58.80
61672;DHT22;47572;0.00000000;0.00000000;2022-12-20T00:34:16;18.30;58.90
61672;DHT22;47572;0.00000000;0.00000000;2022-12-20T00:36:48;18.20;58.80
61672;DHT22;47572;0.00000000;0.00000000;2022-12-20T00:39:14;18.20;58.80
61672;DHT22;47572;0.00000000;0.00000000;2022-12-20T00:41:40;18.20;58.80
61672;DHT22;47572;0.00000000;0.00000000;2022-12-20T00:44:06;18.20;58.90
61672;DHT22;47572;0.00000000;0.00000000;2022-12-20T00:46:32;18.20;58.80
61672;DHT22;47572;0.00000000;0.00000000;2022-12-20T00:48:58;18.20;59.70
61672;DHT22;47572;0.00000000;0.00000000;2022-12-20T00:51:28;18.20;58.80
61672;DHT22;47572;0.00000000;0.00000000;2022-12-20T00:53:55;18.20;58.90
61672;DHT22;47572;0.00000000;0.00000000;2022-12-20T00:56:22;18.20;58.90
61672;DHT22;47572;0.00000000;0.00000000;2022-12-20T00:58:48;18.20;58.80
61672;DHT22;47572;0.00000000;0.00000000;2022-12-20T01:01:21;18.20;58.90
61672;DHT22;47572;0.00000000;0.00000000;2022-12-20T01:03:48;18.10;58.80
61672;DHT22;47572;0.00000000;0.00000000;2022-12-20T01:06:14;18.10;58.80
61672;DHT22;47572;0.00000000;0.00000000;2022-12-20T01:08:40;18.10;58.90
61672;DHT22;47572;0.00000000;0.00000000;2022-12-20T01:13:38;18.10;58.90
61672;DHT22;47572;0.00000000;0.00000000;2022-12-20T01:16:05;18.10;58.90
61672;DHT22;47572;0.00000000;0.00000000;2022-12-20T01:18:31;18.10;58.90
61672;DHT22;47572;0.00000000;0.00000000;2022-12-20T01:21:04;18.10;58.90
61672;DHT22;47572;0.00000000;0.00000000;2022-12-20T01:23:31;18.00;58.90
61672;DHT22;47572;0.00000000;0.00000000;2022-12-20T01:25:58;18.10;58.90
61672;DHT22;47572;0.00000000;0.00000000;2022-12-20T01:28:24;18.00;58.80
61672;DHT22;47572;0.00000000;0.00000000;2022-12-20T01:30:50;18.00;58.90
61672;DHT22;47572;0.00000000;0.00000000;2022-12-20T01:33:16;18.00;58.80
61672;DHT22;47572;0.00000000;0.00000000;2022-12-20T01:35:41;18.00;58.80
61672;DHT22;47572;0.00000000;0.00000000;2022-12-20T01:38:07;18.00;58.80
61672;DHT22;47572;0.00000000;0.00000000;2022-12-20T01:40:33;18.00;58.80
61672;DHT22;47572;0.00000000;0.00000000;2022-12-20T01:42:59;18.00;58.90
61672;DHT22;47572;0.00000000;0.00000000;2022-12-20T01:45:28;18.00;58.90
61672;DHT22;47572;0.00000000;0.00000000;2022-12-20T01:47:55;18.00;58.80
61672;DHT22;47572;0.00000000;0.00000000;2022-12-20T01:50:22;18.00;58.80
61672;DHT22;47572;0.00000000;0.00000000;2022-12-20T01:52:53;18.00;58.90
61672;DHT22;47572;0.00000000;0.00000000;2022-12-20T01:55:22;18.00;58.90
61672;DHT22;47572;0.00000000;0.00000000;2022-12-20T02:00:16;18.00;58.90
61672;DHT22;47572;0.00000000;0.00000000;2022-12-20T02:02:42;17.90;58.90
61672;DHT22;47572;0.00000000;0.00000000;2022-12-20T02:05:15;18.00;58.90
61672;DHT22;47572;0.00000000;0.00000000;2022-12-20T02:07:41;17.90;58.80
61672;DHT22;47572;0.00000000;0.00000000;2022-12-20T02:10:10;17.90;58.90
61672;DHT22;47572;0.00000000;0.00000000;2022-12-20T02:12:42;17.90;58.90
61672;DHT22;47572;0.00000000;0.00000000;2022-12-20T02:15:22;17.90;58.90
61672;DHT22;47572;0.00000000;0.00000000;2022-12-20T02:28:24;17.90;58.90
61672;DHT22;47572;0.00000000;0.00000000;2022-12-20T02:30:51;17.90;58.90
61672;DHT22;47572;0.00000000;0.00000000;2022-12-20T02:33:19;17.80;58.80
61672;DHT22;47572;0.00000000;0.00000000;2022-12-20T02:35:48;17.90;58.90
61672;DHT22;47572;0.00000000;0.00000000;2022-12-20T02:38:25;17.80;58.90
61672;DHT22;47572;0.00000000;0.00000000;2022-12-20T02:40:53;17.80;58.90
61672;DHT22;47572;0.00000000;0.00000000;2022-12-20T02:43:19;17.80;58.80
61672;DHT22;47572;0.00000000;0.00000000;2022-12-20T02:46:04;17.80;58.90
61672;DHT22;47572;0.00000000;0.00000000;2022-12-20T02:48:32;17.80;58.90
61672;DHT22;47572;0.00000000;0.00000000;2022-12-20T02:50:59;17.80;58.90
61672;DHT22;47572;0.00000000;0.00000000;2022-12-20T02:53:27;17.80;58.90
61672;DHT22;47572;0.00000000;0.00000000;2022-12-20T02:58:40;17.80;58.90
61672;DHT22;47572;0.00000000;0.00000000;2022-12-20T03:01:09;17.80;58.90
61672;DHT22;47572;0.00000000;0.00000000;2022-12-20T03:03:36;17.80;58.90
61672;DHT22;47572;0.00000000;0.00000000;2022-12-20T03:06:02;17.80;58.90
61672;DHT22;47572;0.00000000;0.00000000;2022-12-20T03:08:28;17.80;58.90
61672;DHT22;47572;0.00000000;0.00000000;2022-12-20T03:10:54;17.70;58.90
61672;DHT22;47572;0.00000000;0.00000000;2022-12-20T03:13:21;17.70;58.90
61672;DHT22;47572;0.00000000;0.00000000;2022-12-20T03:15:47;17.70;58.90
61672;DHT22;47572;0.00000000;0.00000000;2022-12-20T03:18:13;17.70;58.90
61672;DHT22;47572;0.00000000;0.00000000;2022-12-20T03:20:39;17.70;58.90
61672;DHT22;47572;0.00000000;0.00000000;2022-12-20T03:23:05;17.70;58.90
61672;DHT22;47572;0.00000000;0.00000000;2022-12-20T03:25:31;17.70;58.90
61672;DHT22;47572;0.00000000;0.00000000;2022-12-20T03:27:57;17.70;58.90
61672;DHT22;47572;0.00000000;0.00000000;2022-12-20T03:30:22;17.70;58.90
61672;DHT22;47572;0.00000000;0.00000000;2022-12-20T03:32:48;17.70;58.90
61672;DHT22;47572;0.00000000;0.00000000;2022-12-20T03:35:14;17.70;58.90
61672;DHT22;47572;0.00000000;0.00000000;2022-12-20T03:37:40;17.60;58.90
61672;DHT22;47572;0.00000000;0.00000000;2022-12-20T03:40:07;17.70;59.00
61672;DHT22;47572;0.00000000;0.00000000;2022-12-20T03:42:33;17.70;58.90
61672;DHT22;47572;0.00000000;0.00000000;2022-12-20T03:44:59;17.70;59.00
61672;DHT22;47572;0.00000000;0.00000000;2022-12-20T03:47:25;17.70;59.00
61672;DHT22;47572;0.00000000;0.00000000;2022-12-20T03:49:51;17.60;58.90
61672;DHT22;47572;0.00000000;0.00000000;2022-12-20T03:52:17;17.60;58.90
61672;DHT22;47572;0.00000000;0.00000000;2022-12-20T03:54:43;17.60;58.90
61672;DHT22;47572;0.00000000;0.00000000;2022-12-20T03:57:08;17.60;58.90
61672;DHT22;47572;0.00000000;0.00000000;2022-12-20T03:59:34;17.60;59.00
61672;DHT22;47572;0.00000000;0.00000000;2022-12-20T04:02:00;17.60;58.90
61672;DHT22;47572;0.00000000;0.00000000;2022-12-20T04:04:29;17.60;59.00
61672;DHT22;47572;0.00000000;0.00000000;2022-12-20T04:06:54;17.60;59.00
61672;DHT22;47572;0.00000000;0.00000000;2022-12-20T04:09:20;17.60;59.00
61672;DHT22;47572;0.00000000;0.00000000;2022-12-20T04:11:46;17.60;59.00
61672;DHT22;47572;0.00000000;0.00000000;2022-12-20T04:14:13;17.60;58.90
61672;DHT22;47572;0.00000000;0.00000000;2022-12-20T04:16:39;17.60;59.00
61672;DHT22;47572;0.00000000;0.00000000;2022-12-20T04:19:05;17.60;59.00
61672;DHT22;47572;0.00000000;0.00000000;2022-12-20T04:21:31;17.60;59.00
61672;DHT22;47572;0.00000000;0.00000000;2022-12-20T04:23:57;17.60;59.10
61672;DHT22;47572;0.00000000;0.00000000;2022-12-20T04:26:24;17.50;59.00
61672;DHT22;47572;0.00000000;0.00000000;2022-12-20T04:28:50;17.50;59.00
61672;DHT22;47572;0.00000000;0.00000000;2022-12-20T04:31:17;17.50;58.90
61672;DHT22;47572;0.00000000;0.00000000;2022-12-20T04:33:44;17.50;58.90
61672;DHT22;47572;0.00000000;0.00000000;2022-12-20T04:36:09;17.50;59.00
61672;DHT22;47572;0.00000000;0.00000000;2022-12-20T04:38:35;17.50;59.00
61672;DHT22;47572;0.00000000;0.00000000;2022-12-20T04:41:01;17.50;59.00
61672;DHT22;47572;0.00000000;0.00000000;2022-12-20T04:43:27;17.50;59.00
61672;DHT22;47572;0.00000000;0.00000000;2022-12-20T04:45:56;17.50;59.00
61672;DHT22;47572;0.00000000;0.00000000;2022-12-20T04:48:23;17.50;59.00
61672;DHT22;47572;0.00000000;0.00000000;2022-12-20T04:50:52;17.50;59.00
61672;DHT22;47572;0.00000000;0.00000000;2022-12-20T04:53:18;17.50;59.00
61672;DHT22;47572;0.00000000;0.00000000;2022-12-20T04:56:03;17.50;59.10
61672;DHT22;47572;0.00000000;0.00000000;2022-12-20T04:58:29;17.50;59.10
61672;DHT22;47572;0.00000000;0.00000000;2022-12-20T05:00:55;17.50;59.10
61672;DHT22;47572;0.00000000;0.00000000;2022-12-20T05:03:21;17.50;59.10
61672;DHT22;47572;0.00000000;0.00000000;2022-12-20T05:05:48;17.50;59.10
61672;DHT22;47572;0.00000000;0.00000000;2022-12-20T05:08:13;17.40;59.10
61672;DHT22;47572;0.00000000;0.00000000;2022-12-20T05:10:39;17.40;59.10
61672;DHT22;47572;0.00000000;0.00000000;2022-12-20T05:13:05;17.40;59.10
61672;DHT22;47572;0.00000000;0.00000000;2022-12-20T05:15:32;17.40;59.10
61672;DHT22;47572;0.00000000;0.00000000;2022-12-20T05:17:58;17.40;59.10
61672;DHT22;47572;0.00000000;0.00000000;2022-12-20T05:20:25;17.40;59.10
61672;DHT22;47572;0.00000000;0.00000000;2022-12-20T05:22:51;17.40;59.10
61672;DHT22;47572;0.00000000;0.00000000;2022-12-20T05:25:37;17.40;59.10
61672;DHT22;47572;0.00000000;0.00000000;2022-12-20T05:28:27;17.40;59.10
61672;DHT22;47572;0.00000000;0.00000000;2022-12-20T05:30:53;17.40;59.10
61672;DHT22;47572;0.00000000;0.00000000;2022-12-20T05:33:19;17.40;59.10
61672;DHT22;47572;0.00000000;0.00000000;2022-12-20T05:36:04;17.40;59.10
61672;DHT22;47572;0.00000000;0.00000000;2022-12-20T05:38:50;17.40;59.10
61672;DHT22;47572;0.00000000;0.00000000;2022-12-20T05:41:36;17.40;59.10
61672;DHT22;47572;0.00000000;0.00000000;2022-12-20T05:44:21;17.40;59.10
61672;DHT22;47572;0.00000000;0.00000000;2022-12-20T05:47:07;17.40;59.10
61672;DHT22;47572;0.00000000;0.00000000;2022-12-20T05:49:33;17.40;59.10
61672;DHT22;47572;0.00000000;0.00000000;2022-12-20T05:52:04;17.40;59.00
61672;DHT22;47572;0.00000000;0.00000000;2022-12-20T05:54:30;17.40;59.00
61672;DHT22;47572;0.00000000;0.00000000;2022-12-20T05:56:56;17.40;58.90
61672;DHT22;47572;0.00000000;0.00000000;2022-12-20T05:59:23;17.50;58.90
61672;DHT22;47572;0.00000000;0.00000000;2022-12-20T06:01:49;17.50;58.70
61672;DHT22;47572;0.00000000;0.00000000;2022-12-20T06:04:15;17.50;58.80
61672;DHT22;47572;0.00000000;0.00000000;2022-12-20T06:06:40;17.50;58.60
61672;DHT22;47572;0.00000000;0.00000000;2022-12-20T06:09:06;17.50;58.70
61672;DHT22;47572;0.00000000;0.00000000;2022-12-20T06:11:32;17.50;58.60
61672;DHT22;47572;0.00000000;0.00000000;2022-12-20T06:14:03;17.60;58.60
61672;DHT22;47572;0.00000000;0.00000000;2022-12-20T06:16:41;17.60;58.70
61672;DHT22;47572;0.00000000;0.00000000;2022-12-20T06:19:07;17.60;58.60
61672;DHT22;47572;0.00000000;0.00000000;2022-12-20T06:21:33;17.60;59.00
61672;DHT22;47572;0.00000000;0.00000000;2022-12-20T06:23:59;17.60;59.10
61672;DHT22;47572;0.00000000;0.00000000;2022-12-20T06:26:26;17.60;59.50
61672;DHT22;47572;0.00000000;0.00000000;2022-12-20T06:28:52;17.60;59.90
61672;DHT22;47572;0.00000000;0.00000000;2022-12-20T06:31:19;17.70;59.00
61672;DHT22;47572;0.00000000;0.00000000;2022-12-20T06:33:44;17.80;58.80
61672;DHT22;47572;0.00000000;0.00000000;2022-12-20T06:36:10;17.90;58.50
61672;DHT22;47572;0.00000000;0.00000000;2022-12-20T06:38:36;18.00;58.30
61672;DHT22;47572;0.00000000;0.00000000;2022-12-20T06:41:02;18.20;58.10
61672;DHT22;47572;0.00000000;0.00000000;2022-12-20T06:43:39;18.30;57.80
61672;DHT22;47572;0.00000000;0.00000000;2022-12-20T06:46:05;18.50;57.70
61672;DHT22;47572;0.00000000;0.00000000;2022-12-20T06:48:30;18.60;57.30
61672;DHT22;47572;0.00000000;0.00000000;2022-12-20T06:50:56;18.70;57.40
61672;DHT22;47572;0.00000000;0.00000000;2022-12-20T06:53:23;18.70;57.50
61672;DHT22;47572;0.00000000;0.00000000;2022-12-20T06:55:52;18.80;57.50
61672;DHT22;47572;0.00000000;0.00000000;2022-12-20T06:58:18;18.80;57.60
61672;DHT22;47572;0.00000000;0.00000000;2022-12-20T07:00:44;18.80;57.60
61672;DHT22;47572;0.00000000;0.00000000;2022-12-20T07:03:10;18.80;57.70
61672;DHT22;47572;0.00000000;0.00000000;2022-12-20T07:05:35;18.80;57.80
61672;DHT22;47572;0.00000000;0.00000000;2022-12-20T07:08:01;18.80;57.80
61672;DHT22;47572;0.00000000;0.00000000;2022-12-20T07:10:29;18.80;57.80
61672;DHT22;47572;0.00000000;0.00000000;2022-12-20T07:13:07;18.80;57.80
61672;DHT22;47572;0.00000000;0.00000000;2022-12-20T07:15:33;18.80;57.80
61672;DHT22;47572;0.00000000;0.00000000;2022-12-20T07:18:02;18.80;57.70
61672;DHT22;47572;0.00000000;0.00000000;2022-12-20T07:20:28;18.90;57.90
61672;DHT22;47572;0.00000000;0.00000000;2022-12-20T07:22:55;18.90;58.00
61672;DHT22;47572;0.00000000;0.00000000;2022-12-20T07:25:20;18.90;58.00
61672;DHT22;47572;0.00000000;0.00000000;2022-12-20T07:27:47;18.90;58.10
61672;DHT22;47572;0.00000000;0.00000000;2022-12-20T07:30:15;18.90;58.10
61672;DHT22;47572;0.00000000;0.00000000;2022-12-20T07:32:41;18.90;58.00
61672;DHT22;47572;0.00000000;0.00000000;2022-12-20T07:35:08;18.80;58.10
61672;DHT22;47572;0.00000000;0.00000000;2022-12-20T07:37:35;18.90;57.90
61672;DHT22;47572;0.00000000;0.00000000;2022-12-20T07:40:09;18.90;58.00
61672;DHT22;47572;0.00000000;0.00000000;2022-12-20T07:42:35;18.90;57.90
61672;DHT22;47572;0.00000000;0.00000000;2022-12-20T07:45:01;19.00;57.90
61672;DHT22;47572;0.00000000;0.00000000;2022-12-20T07:47:27;19.00;58.00
61672;DHT22;47572;0.00000000;0.00000000;2022-12-20T07:49:53;19.00;58.00
61672;DHT22;47572;0.00000000;0.00000000;2022-12-20T07:52:20;19.00;58.00
61672;DHT22;47572;0.00000000;0.00000000;2022-12-20T07:54:48;19.00;58.10
61672;DHT22;47572;0.00000000;0.00000000;2022-12-20T07:57:22;19.10;59.10
61672;DHT22;47572;0.00000000;0.00000000;2022-12-20T07:59:50;19.10;58.20
61672;DHT22;47572;0.00000000;0.00000000;2022-12-20T08:02:19;19.10;58.20
61672;DHT22;47572;0.00000000;0.00000000;2022-12-20T08:04:49;19.10;58.20
61672;DHT22;47572;0.00000000;0.00000000;2022-12-20T08:07:15;19.10;58.30
61672;DHT22;47572;0.00000000;0.00000000;2022-12-20T08:09:42;19.10;58.30
61672;DHT22;47572;0.00000000;0.00000000;2022-12-20T08:12:09;19.10;58.50
61672;DHT22;47572;0.00000000;0.00000000;2022-12-20T08:14:38;19.10;58.50
61672;DHT22;47572;0.00000000;0.00000000;2022-12-20T08:17:04;19.10;58.60
61672;DHT22;47572;0.00000000;0.00000000;2022-12-20T08:19:43;19.10;58.60
61672;DHT22;47572;0.00000000;0.00000000;2022-12-20T08:22:09;19.00;58.70
61672;DHT22;47572;0.00000000;0.00000000;2022-12-20T08:24:34;19.00;59.00
61672;DHT22;47572;0.00000000;0.00000000;2022-12-20T08:27:00;19.00;58.80
61672;DHT22;47572;0.00000000;0.00000000;2022-12-20T08:29:29;19.00;59.20
61672;DHT22;47572;0.00000000;0.00000000;2022-12-20T08:31:55;19.00;59.10
61672;DHT22;47572;0.00000000;0.00000000;2022-12-20T08:34:20;18.90;59.30
61672;DHT22;47572;0.00000000;0.00000000;2022-12-20T08:36:46;18.90;59.20
61672;DHT22;47572;0.00000000;0.00000000;2022-12-20T08:39:12;18.90;59.30
61672;DHT22;47572;0.00000000;0.00000000;2022-12-20T08:41:38;18.90;59.50
61672;DHT22;47572;0.00000000;0.00000000;2022-12-20T08:44:11;18.90;59.40
61672;DHT22;47572;0.00000000;0.00000000;2022-12-20T08:46:37;18.90;59.70
61672;DHT22;47572;0.00000000;0.00000000;2022-12-20T08:49:05;18.90;59.70
61672;DHT22;47572;0.00000000;0.00000000;2022-12-20T08:51:35;18.80;59.70
61672;DHT22;47572;0.00000000;0.00000000;2022-12-20T08:54:00;18.80;59.80
61672;DHT22;47572;0.00000000;0.00000000;2022-12-20T08:56:27;18.80;60.60
61672;DHT22;47572;0.00000000;0.00000000;2022-12-20T08:58:53;18.80;59.90
61672;DHT22;47572;0.00000000;0.00000000;2022-12-20T09:01:19;18.80;59.90
61672;DHT22;47572;0.00000000;0.00000000;2022-12-20T09:03:46;18.80;59.90
61672;DHT22;47572;0.00000000;0.00000000;2022-12-20T09:06:13;18.70;60.00
61672;DHT22;47572;0.00000000;0.00000000;2022-12-20T09:08:40;18.80;60.40
61672;DHT22;47572;0.00000000;0.00000000;2022-12-20T09:11:07;18.80;59.90
61672;DHT22;47572;0.00000000;0.00000000;2022-12-20T09:13:33;18.80;59.80
61672;DHT22;47572;0.00000000;0.00000000;2022-12-20T09:16:03;18.80;59.90
61672;DHT22;47572;0.00000000;0.00000000;2022-12-20T09:18:29;18.90;60.00
61672;DHT22;47572;0.00000000;0.00000000;2022-12-20T09:21:03;18.90;60.00
61672;DHT22;47572;0.00000000;0.00000000;2022-12-20T09:23:29;18.90;60.00
61672;DHT22;47572;0.00000000;0.00000000;2022-12-20T09:26:00;18.90;60.00
61672;DHT22;47572;0.00000000;0.00000000;2022-12-20T09:28:26;18.90;60.00
61672;DHT22;47572;0.00000000;0.00000000;2022-12-20T09:31:00;18.90;60.00
61672;DHT22;47572;0.00000000;0.00000000;2022-12-20T09:33:26;18.90;60.10
61672;DHT22;47572;0.00000000;0.00000000;2022-12-20T09:35:53;18.90;60.20
61672;DHT22;47572;0.00000000;0.00000000;2022-12-20T09:38:22;18.90;60.20
61672;DHT22;47572;0.00000000;0.00000000;2022-12-20T09:40:49;18.90;60.30
61672;DHT22;47572;0.00000000;0.00000000;2022-12-20T09:43:16;19.00;60.60
61672;DHT22;47572;0.00000000;0.00000000;2022-12-20T09:45:43;19.10;60.40
61672;DHT22;47572;0.00000000;0.00000000;2022-12-20T09:48:13;19.20;59.70
61672;DHT22;47572;0.00000000;0.00000000;2022-12-20T09:55:55;19.80;58.40
61672;DHT22;47572;0.00000000;0.00000000;2022-12-20T09:58:40;19.80;58.40
61672;DHT22;47572;0.00000000;0.00000000;2022-12-20T10:01:13;19.80;58.40
61672;DHT22;47572;0.00000000;0.00000000;2022-12-20T10:03:39;19.70;58.50
61672;DHT22;47572;0.00000000;0.00000000;2022-12-20T10:06:28;19.60;58.60
61672;DHT22;47572;0.00000000;0.00000000;2022-12-20T10:08:57;19.50;58.90
61672;DHT22;47572;0.00000000;0.00000000;2022-12-20T10:11:46;19.40;59.10
61672;DHT22;47572;0.00000000;0.00000000;2022-12-20T10:22:32;19.40;59.50
61672;DHT22;47572;0.00000000;0.00000000;2022-12-20T10:25:15;19.40;59.40
61672;DHT22;47572;0.00000000;0.00000000;2022-12-20T10:27:41;19.50;59.20
61672;DHT22;47572;0.00000000;0.00000000;2022-12-20T10:30:15;19.60;59.10
61672;DHT22;47572;0.00000000;0.00000000;2022-12-20T10:32:45;19.70;58.90
61672;DHT22;47572;0.00000000;0.00000000;2022-12-20T10:37:37;19.90;58.50
61672;DHT22;47572;0.00000000;0.00000000;2022-12-20T10:40:03;20.10;58.40
61672;DHT22;47572;0.00000000;0.00000000;2022-12-20T10:42:36;20.10;58.20
61672;DHT22;47572;0.00000000;0.00000000;2022-12-20T10:45:03;20.20;58.00
61672;DHT22;47572;0.00000000;0.00000000;2022-12-20T10:47:36;20.20;57.90
61672;DHT22;47572;0.00000000;0.00000000;2022-12-20T10:52:39;20.20;57.70
61672;DHT22;47572;0.00000000;0.00000000;2022-12-20T10:55:24;20.30;57.70
61672;DHT22;47572;0.00000000;0.00000000;2022-12-20T10:57:51;20.30;57.70
61672;DHT22;47572;0.00000000;0.00000000;2022-12-20T11:00:27;20.30;57.60
61672;DHT22;47572;0.00000000;0.00000000;2022-12-20T11:05:57;20.30;57.60
61672;DHT22;47572;0.00000000;0.00000000;2022-12-20T11:08:24;20.30;57.60
61672;DHT22;47572;0.00000000;0.00000000;2022-12-20T11:13:37;20.30;57.50
61672;DHT22;47572;0.00000000;0.00000000;2022-12-20T11:16:03;20.40;57.50
61672;DHT22;47572;0.00000000;0.00000000;2022-12-20T11:23:32;20.40;57.40
61672;DHT22;47572;0.00000000;0.00000000;2022-12-20T11:31:15;20.40;57.50
61672;DHT22;47572;0.00000000;0.00000000;2022-12-20T11:38:39;20.50;57.50
61672;DHT22;47572;0.00000000;0.00000000;2022-12-20T11:43:45;20.50;57.40
61672;DHT22;47572;0.00000000;0.00000000;2022-12-20T11:49:14;20.50;57.30
61672;DHT22;47572;0.00000000;0.00000000;2022-12-20T11:51:52;20.50;57.30
61672;DHT22;47572;0.00000000;0.00000000;2022-12-20T11:54:28;20.50;57.30
61672;DHT22;47572;0.00000000;0.00000000;2022-12-20T11:57:01;20.50;57.30
61672;DHT22;47572;0.00000000;0.00000000;2022-12-20T12:04:26;20.50;57.40
61672;DHT22;47572;0.00000000;0.00000000;2022-12-20T12:07:08;20.50;57.40
61672;DHT22;47572;0.00000000;0.00000000;2022-12-20T12:09:37;20.50;57.50
61672;DHT22;47572;0.00000000;0.00000000;2022-12-20T12:12:11;20.50;57.50
61672;DHT22;47572;0.00000000;0.00000000;2022-12-20T12:14:44;20.50;57.60
61672;DHT22;47572;0.00000000;0.00000000;2022-12-20T12:17:12;20.50;57.60
61672;DHT22;47572;0.00000000;0.00000000;2022-12-20T12:19:42;20.50;57.50
61672;DHT22;47572;0.00000000;0.00000000;2022-12-20T12:22:13;20.50;58.50
61672;DHT22;47572;0.00000000;0.00000000;2022-12-20T12:24:47;20.50;57.60
61672;DHT22;47572;0.00000000;0.00000000;2022-12-20T12:27:21;20.50;57.50
61672;DHT22;47572;0.00000000;0.00000000;2022-12-20T12:29:48;20.50;57.50
61672;DHT22;47572;0.00000000;0.00000000;2022-12-20T12:34:47;20.50;57.50
61672;DHT22;47572;0.00000000;0.00000000;2022-12-20T12:40:04;20.50;57.60
61672;DHT22;47572;0.00000000;0.00000000;2022-12-20T12:45:23;20.50;57.70
61672;DHT22;47572;0.00000000;0.00000000;2022-12-20T12:50:47;20.60;57.80
61672;DHT22;47572;0.00000000;0.00000000;2022-12-20T12:53:15;20.60;57.80
61672;DHT22;47572;0.00000000;0.00000000;2022-12-20T13:00:55;20.60;57.90
61672;DHT22;47572;0.00000000;0.00000000;2022-12-20T13:03:38;20.60;57.90
61672;DHT22;47572;0.00000000;0.00000000;2022-12-20T13:08:49;20.60;58.00
61672;DHT22;47572;0.00000000;0.00000000;2022-12-20T13:11:37;20.60;58.00
61672;DHT22;47572;0.00000000;0.00000000;2022-12-20T13:14:10;20.60;58.00
61672;DHT22;47572;0.00000000;0.00000000;2022-12-20T13:16:38;20.60;58.00
61672;DHT22;47572;0.00000000;0.00000000;2022-12-20T13:19:49;20.60;58.00
61672;DHT22;47572;0.00000000;0.00000000;2022-12-20T13:27:25;20.60;58.10
61672;DHT22;47572;0.00000000;0.00000000;2022-12-20T13:35:42;20.60;58.10
61672;DHT22;47572;0.00000000;0.00000000;2022-12-20T13:41:37;20.60;58.10
61672;DHT22;47572;0.00000000;0.00000000;2022-12-20T13:49:09;20.60;58.10
61672;DHT22;47572;0.00000000;0.00000000;2022-12-20T13:51:36;20.60;58.10
61672;DHT22;47572;0.00000000;0.00000000;2022-12-20T13:54:03;20.60;58.10
61672;DHT22;47572;0.00000000;0.00000000;2022-12-20T13:56:39;20.70;58.10
61672;DHT22;47572;0.00000000;0.00000000;2022-12-20T13:59:13;20.70;58.10
61672;DHT22;47572;0.00000000;0.00000000;2022-12-20T14:01:49;20.70;58.10
61672;DHT22;47572;0.00000000;0.00000000;2022-12-20T14:04:16;20.70;58.00
61672;DHT22;47572;0.00000000;0.00000000;2022-12-20T14:06:42;20.70;58.00
61672;DHT22;47572;0.00000000;0.00000000;2022-12-20T14:11:52;20.70;58.00
61672;DHT22;47572;0.00000000;0.00000000;2022-12-20T14:14:18;20.70;57.90
61672;DHT22;47572;0.00000000;0.00000000;2022-12-20T14:16:44;20.70;57.90
61672;DHT22;47572;0.00000000;0.00000000;2022-12-20T14:19:13;20.80;58.00
61672;DHT22;47572;0.00000000;0.00000000;2022-12-20T14:21:40;20.70;58.00
61672;DHT22;47572;0.00000000;0.00000000;2022-12-20T14:24:10;20.70;58.00
61672;DHT22;47572;0.00000000;0.00000000;2022-12-20T14:26:44;20.70;58.10
61672;DHT22;47572;0.00000000;0.00000000;2022-12-20T14:29:17;20.80;58.10
61672;DHT22;47572;0.00000000;0.00000000;2022-12-20T14:31:44;20.80;58.10
61672;DHT22;47572;0.00000000;0.00000000;2022-12-20T14:36:36;20.80;58.10
61672;DHT22;47572;0.00000000;0.00000000;2022-12-20T14:41:53;20.80;58.20
61672;DHT22;47572;0.00000000;0.00000000;2022-12-20T14:44:20;20.80;58.20
61672;DHT22;47572;0.00000000;0.00000000;2022-12-20T14:46:56;20.80;58.20
61672;DHT22;47572;0.00000000;0.00000000;2022-12-20T14:51:52;20.70;58.20
61672;DHT22;47572;0.00000000;0.00000000;2022-12-20T14:54:28;20.70;58.20
61672;DHT22;47572;0.00000000;0.00000000;2022-12-20T14:56:54;20.70;58.20
61672;DHT22;47572;0.00000000;0.00000000;2022-12-20T14:59:26;20.70;58.30
61672;DHT22;47572;0.00000000;0.00000000;2022-12-20T15:01:52;20.70;58.30
61672;DHT22;47572;0.00000000;0.00000000;2022-12-20T15:04:23;20.70;58.30
61672;DHT22;47572;0.00000000;0.00000000;2022-12-20T15:06:49;20.70;58.30
61672;DHT22;47572;0.00000000;0.00000000;2022-12-20T15:09:17;20.70;58.40
61672;DHT22;47572;0.00000000;0.00000000;2022-12-20T15:11:44;20.70;58.50
61672;DHT22;47572;0.00000000;0.00000000;2022-12-20T15:16:46;20.70;58.50
61672;DHT22;47572;0.00000000;0.00000000;2022-12-20T15:19:17;20.70;58.50
61672;DHT22;47572;0.00000000;0.00000000;2022-12-20T15:21:42;20.70;58.50
61672;DHT22;47572;0.00000000;0.00000000;2022-12-20T15:24:13;20.70;58.50
61672;DHT22;47572;0.00000000;0.00000000;2022-12-20T15:26:39;20.70;58.50
61672;DHT22;47572;0.00000000;0.00000000;2022-12-20T15:29:05;20.70;58.60
61672;DHT22;47572;0.00000000;0.00000000;2022-12-20T15:31:33;20.70;58.60
61672;DHT22;47572;0.00000000;0.00000000;2022-12-20T15:34:00;20.70;58.60
61672;DHT22;47572;0.00000000;0.00000000;2022-12-20T15:36:27;20.70;58.60
61672;DHT22;47572;0.00000000;0.00000000;2022-12-20T15:38:53;20.70;58.60
61672;DHT22;47572;0.00000000;0.00000000;2022-12-20T15:41:21;20.80;58.60